createdAt,value
2023-04-13T00:00:21.882Z,95728.06
2023-04-13T00:01:24.053Z,95721.97
2023-04-13T00:02:26.420Z,95729.41
2023-04-13T00:03:34.907Z,95721.97
2023-04-13T00:04:37.492Z,95721.31
2023-04-13T00:05:40.199Z,95728.31
2023-04-13T00:06:42.993Z,95728.72
2023-04-13T00:07:44.930Z,95721.59
2023-04-13T00:08:46.988Z,95727.59
2023-04-13T00:09:51.010Z,95725.59
2023-04-13T00:10:54.575Z,95718.81
2023-04-13T00:11:58.325Z,95724.81
2023-04-13T00:13:02.173Z,95719.19
2023-04-13T00:14:04.050Z,95721.16
2023-04-13T00:15:06.130Z,95722.31
2023-04-13T00:16:09.267Z,95727.06
2023-04-13T00:17:11.426Z,95719.06
2023-04-13T00:18:13.310Z,95720.66
2023-04-13T00:19:15.212Z,95719.44
2023-04-13T00:20:18.028Z,95716.16
2023-04-13T00:21:19.899Z,95716.75
2023-04-13T00:22:21.720Z,95714.16
2023-04-13T00:23:23.510Z,95710.53
2023-04-13T00:24:25.327Z,95712.34
2023-04-13T00:25:27.356Z,95707.59
2023-04-13T00:26:29.305Z,95712.22
2023-04-13T00:27:31.117Z,95704.41
2023-04-13T00:28:33.647Z,95709.59
2023-04-13T00:29:36.076Z,95702.59
2023-04-13T00:30:38.033Z,95707.34
2023-04-13T00:31:40.554Z,95711.97
2023-04-13T00:32:43.338Z,95709.59
2023-04-13T00:33:45.264Z,95702.81
2023-04-13T00:34:47.207Z,95704.16
2023-04-13T00:35:49.098Z,95711.75
2023-04-13T00:36:50.981Z,95706.34
2023-04-13T00:37:53.653Z,95701.16
2023-04-13T00:38:57.579Z,95699.34
2023-04-13T00:39:59.956Z,95697.75
2023-04-13T00:41:02.621Z,95701.34
2023-04-13T00:42:06.042Z,95699.78
2023-04-13T00:43:07.901Z,95692.56
2023-04-13T00:44:09.812Z,95694.72
2023-04-13T00:45:13.766Z,95696.88
2023-04-13T00:46:16.735Z,95694.03
2023-04-13T00:47:26.876Z,95702.66
2023-04-13T00:48:28.909Z,95690.44
2023-04-13T00:49:31.763Z,95685.25
2023-04-13T00:50:34.538Z,95693.03
2023-04-13T00:51:36.409Z,95682.44
2023-04-13T00:52:41.309Z,95689.97
2023-04-13T00:53:43.899Z,95697.00
2023-04-13T00:54:45.697Z,95694.03
2023-04-13T00:55:48.900Z,95690.88
2023-04-13T00:56:51.511Z,95692.47
2023-04-13T00:57:53.620Z,95691.69
2023-04-13T00:58:56.757Z,95694.50
2023-04-13T00:59:59.267Z,95693.13
2023-04-13T01:01:01.180Z,95693.56
2023-04-13T01:02:05.831Z,95695.59
2023-04-13T01:03:08.378Z,95690.97
2023-04-13T01:04:10.593Z,95691.53
2023-04-13T01:05:14.438Z,95694.13
2023-04-13T01:06:18.188Z,95691.97
2023-04-13T01:07:24.503Z,95692.97
2023-04-13T01:08:29.433Z,95690.59
2023-04-13T01:09:41.518Z,95698.19
2023-04-13T01:10:48.263Z,95699.06
2023-04-13T01:11:56.835Z,95697.47
2023-04-13T01:12:58.669Z,95699.84
2023-04-13T01:14:03.615Z,95702.22
2023-04-13T01:15:13.034Z,95693.19
2023-04-13T01:16:19.548Z,95697.19
2023-04-13T01:17:23.857Z,95703.97
2023-04-13T01:18:26.771Z,95695.72
2023-04-13T01:19:42.923Z,95694.72
2023-04-13T01:20:46.735Z,95699.69
2023-04-13T01:21:55.016Z,95703.09
2023-04-13T01:22:58.134Z,95701.50
2023-04-13T01:24:19.085Z,95699.13
2023-04-13T01:25:31.166Z,95698.53
2023-04-13T01:26:48.074Z,95701.72
2023-04-13T01:27:52.453Z,95703.75
2023-04-13T01:28:54.652Z,95701.72
2023-04-13T01:29:57.249Z,95707.50
2023-04-13T01:31:01.671Z,95704.44
2023-04-13T01:32:03.656Z,95699.25
2023-04-13T01:33:06.876Z,95696.88
2023-04-13T01:34:09.672Z,95702.88
2023-04-13T01:35:11.884Z,95701.72
2023-04-13T01:36:15.109Z,95700.34
2023-04-13T01:37:17.743Z,95702.13
2023-04-13T01:38:24.848Z,95702.97
2023-04-13T01:39:32.295Z,95703.97
2023-04-13T01:40:35.275Z,95706.19
2023-04-13T01:41:37.133Z,95712.63
2023-04-13T01:42:39.722Z,95708.72
2023-04-13T01:43:42.103Z,95705.34
2023-04-13T01:44:44.063Z,95719.13
2023-04-13T01:45:49.028Z,95711.78
2023-04-13T01:46:52.601Z,95715.16
2023-04-13T01:47:57.846Z,95723.53
2023-04-13T01:49:01.103Z,95712.72
2023-04-13T01:50:12.308Z,95717.25
2023-04-13T01:51:20.737Z,95718.97
2023-04-13T01:52:23.013Z,95718.41
2023-04-13T01:53:28.639Z,95721.78
2023-04-13T01:54:32.186Z,95726.00
2023-04-13T01:55:38.137Z,95722.16
2023-04-13T01:56:40.489Z,95722.53
2023-04-13T01:57:47.507Z,95720.50
2023-04-13T01:58:52.174Z,95718.47
2023-04-13T01:59:54.070Z,95720.84
2023-04-13T02:00:56.000Z,95722.44
2023-04-13T02:01:59.732Z,95726.84
2023-04-13T02:03:02.707Z,95723.31
2023-04-13T02:04:05.582Z,95727.00
2023-04-13T02:05:10.118Z,95728.03
2023-04-13T02:06:12.229Z,95724.19
2023-04-13T02:07:14.063Z,95725.78
2023-04-13T02:08:18.572Z,95731.78
2023-04-13T02:09:20.387Z,95728.16
2023-04-13T02:10:22.465Z,95727.34
2023-04-13T02:11:24.253Z,95732.56
2023-04-13T02:12:26.067Z,95728.97
2023-04-13T02:13:27.935Z,95738.34
2023-04-13T02:14:31.341Z,95735.72
2023-04-13T02:15:39.497Z,95735.72
2023-04-13T02:16:41.432Z,95733.13
2023-04-13T02:17:45.192Z,95740.50
2023-04-13T02:18:47.112Z,95732.13
2023-04-13T02:19:49.029Z,95743.16
2023-04-13T02:21:08.612Z,95735.16
2023-04-13T02:22:10.392Z,95744.56
2023-04-13T02:23:15.184Z,95734.38
2023-04-13T02:24:17.320Z,95734.31
2023-04-13T02:25:19.259Z,95739.19
2023-04-13T02:26:21.214Z,95740.06
2023-04-13T02:27:24.491Z,95744.75
2023-04-13T02:28:28.027Z,95744.94
2023-04-13T02:29:30.057Z,95744.38
2023-04-13T02:30:32.060Z,95750.34
2023-04-13T02:31:34.063Z,95745.38
2023-04-13T02:32:37.903Z,95748.53
2023-04-13T02:33:40.291Z,95747.19
2023-04-13T02:34:42.946Z,95751.16
2023-04-13T02:35:45.761Z,95749.94
2023-04-13T02:36:47.637Z,95756.88
2023-04-13T02:37:49.500Z,95752.84
2023-04-13T02:38:51.432Z,95757.38
2023-04-13T02:39:53.275Z,95752.56
2023-04-13T02:40:59.548Z,95750.56
2023-04-13T02:42:02.657Z,95753.50
2023-04-13T02:43:05.605Z,95758.06
2023-04-13T02:44:08.728Z,95755.00
2023-04-13T02:45:12.515Z,95753.56
2023-04-13T02:46:14.701Z,95758.56
2023-04-13T02:47:17.389Z,95753.34
2023-04-13T02:48:20.243Z,95753.34
2023-04-13T02:49:22.355Z,95760.16
2023-04-13T02:50:24.133Z,95758.34
2023-04-13T02:51:27.426Z,95765.94
2023-04-13T02:52:29.332Z,95761.72
2023-04-13T02:53:31.126Z,95756.97
2023-04-13T02:54:33.489Z,95762.19
2023-04-13T02:55:35.337Z,95764.78
2023-04-13T02:56:38.287Z,95754.38
2023-04-13T02:57:42.589Z,95762.75
2023-04-13T02:58:45.158Z,95759.91
2023-04-13T02:59:47.726Z,95761.31
2023-04-13T03:00:50.295Z,95756.91
2023-04-13T03:01:52.637Z,95756.13
2023-04-13T03:02:55.082Z,95762.09
2023-04-13T03:03:57.180Z,95755.28
2023-04-13T03:04:59.687Z,95757.09
2023-04-13T03:06:01.826Z,95762.31
2023-04-13T03:07:08.525Z,95755.28
2023-04-13T03:08:10.563Z,95756.91
2023-04-13T03:09:12.654Z,95760.50
2023-04-13T03:10:14.581Z,95763.66
2023-04-13T03:11:17.205Z,95762.88
2023-04-13T03:12:20.403Z,95762.09
2023-04-13T03:13:22.327Z,95758.47
2023-04-13T03:14:24.273Z,95760.88
2023-04-13T03:15:26.089Z,95765.50
2023-04-13T03:16:28.764Z,95764.50
2023-04-13T03:17:30.841Z,95770.69
2023-04-13T03:18:32.806Z,95765.50
2023-04-13T03:19:36.282Z,95768.28
2023-04-13T03:20:38.130Z,95773.94
2023-04-13T03:21:41.701Z,95766.16
2023-04-13T03:22:45.559Z,95769.53
2023-04-13T03:23:47.431Z,95778.94
2023-04-13T03:24:49.331Z,95768.53
2023-04-13T03:25:51.199Z,95771.72
2023-04-13T03:26:55.696Z,95783.31
2023-04-13T03:27:57.609Z,95782.53
2023-04-13T03:28:59.584Z,95783.56
2023-04-13T03:30:01.465Z,95780.97
2023-04-13T03:31:04.076Z,95777.34
2023-04-13T03:32:06.552Z,95785.72
2023-04-13T03:33:08.387Z,95784.13
2023-04-13T03:34:10.363Z,95785.94
2023-04-13T03:35:12.245Z,95785.34
2023-04-13T03:36:14.189Z,95787.16
2023-04-13T03:37:16.114Z,95782.97
2023-04-13T03:38:18.070Z,95792.34
2023-04-13T03:39:19.922Z,95784.78
2023-04-13T03:40:21.929Z,95788.75
2023-04-13T03:41:24.186Z,95797.13
2023-04-13T03:42:26.130Z,95795.75
2023-04-13T03:43:28.006Z,95789.97
2023-04-13T03:44:32.886Z,95798.59
2023-04-13T03:45:34.697Z,95798.13
2023-04-13T03:46:39.903Z,95794.53
2023-04-13T03:47:41.936Z,95801.75
2023-04-13T03:48:44.122Z,95795.75
2023-04-13T03:49:46.015Z,95806.59
2023-04-13T03:50:47.806Z,95796.03
2023-04-13T03:51:49.622Z,95805.84
2023-04-13T03:52:51.483Z,95804.31
2023-04-13T03:53:53.323Z,95810.94
2023-04-13T03:54:55.821Z,95811.59
2023-04-13T03:55:57.699Z,95807.19
2023-04-13T03:57:01.196Z,95808.41
2023-04-13T03:58:03.204Z,95804.50
2023-04-13T03:59:05.023Z,95808.75
2023-04-13T04:00:11.450Z,95806.78
2023-04-13T04:01:14.253Z,95814.56
2023-04-13T04:02:16.174Z,95811.75
2023-04-13T04:03:18.730Z,95813.13
2023-04-13T04:04:21.896Z,95819.72
2023-04-13T04:05:24.249Z,95828.09
2023-04-13T04:06:29.410Z,95827.09
2023-04-13T04:07:31.231Z,95825.50
2023-04-13T04:08:33.545Z,95822.94
2023-04-13T04:09:35.328Z,95830.97
2023-04-13T04:10:37.856Z,95830.97
2023-04-13T04:11:39.659Z,95821.78
2023-04-13T04:12:41.475Z,95827.78
2023-04-13T04:13:43.477Z,95837.03
2023-04-13T04:14:45.410Z,95834.25
2023-04-13T04:15:47.394Z,95835.47
2023-04-13T04:16:49.247Z,95840.66
2023-04-13T04:17:51.741Z,95840.66
2023-04-13T04:18:54.403Z,95842.84
2023-04-13T04:19:56.265Z,95844.22
2023-04-13T04:20:58.074Z,95850.00
2023-04-13T04:22:04.394Z,95846.59
2023-04-13T04:23:06.315Z,95854.63
2023-04-13T04:24:09.094Z,95845.81
2023-04-13T04:25:12.056Z,95852.59
2023-04-13T04:26:14.792Z,95855.78
2023-04-13T04:27:16.653Z,95854.78
2023-04-13T04:28:18.477Z,95854.19
2023-04-13T04:29:23.018Z,95854.19
2023-04-13T04:30:25.191Z,95852.16
2023-04-13T04:31:27.320Z,95853.78
2023-04-13T04:32:29.234Z,95848.59
2023-04-13T04:33:31.288Z,95854.56
2023-04-13T04:34:33.103Z,95854.78
2023-04-13T04:35:35.031Z,95860.97
2023-04-13T04:36:42.000Z,95863.78
2023-04-13T04:37:43.884Z,95863.00
2023-04-13T04:38:46.771Z,95863.00
2023-04-13T04:39:48.733Z,95857.63
2023-04-13T04:40:50.969Z,95856.63
2023-04-13T04:42:03.293Z,95859.81
2023-04-13T04:43:05.222Z,95870.78
2023-04-13T04:44:08.360Z,95859.25
2023-04-13T04:45:15.269Z,95861.25
2023-04-13T04:46:17.290Z,95862.69
2023-04-13T04:47:19.966Z,95861.13
2023-04-13T04:48:25.190Z,95863.72
2023-04-13T04:49:28.348Z,95858.31
2023-04-13T04:50:30.222Z,95861.72
2023-04-13T04:51:32.190Z,95862.28
2023-04-13T04:52:34.623Z,95863.66
2023-04-13T04:53:36.678Z,95867.44
2023-04-13T04:54:39.925Z,95869.84
2023-04-13T04:55:41.817Z,95865.00
2023-04-13T04:56:43.624Z,95868.19
2023-04-13T04:57:46.334Z,95860.41
2023-04-13T04:58:48.114Z,95866.38
2023-04-13T04:59:49.998Z,95870.34
2023-04-13T05:00:52.938Z,95880.53
2023-04-13T05:01:54.860Z,95870.94
2023-04-13T05:02:58.102Z,95870.22
2023-04-13T05:04:01.767Z,95876.84
2023-04-13T05:05:03.764Z,95872.44
2023-04-13T05:06:05.772Z,95879.78
2023-04-13T05:07:07.829Z,95878.00
2023-04-13T05:08:09.714Z,95874.59
2023-04-13T05:09:11.971Z,95870.22
2023-04-13T05:10:13.857Z,95872.38
2023-04-13T05:11:15.875Z,95878.00
2023-04-13T05:12:18.253Z,95871.06
2023-04-13T05:13:20.152Z,95871.31
2023-04-13T05:14:22.032Z,95869.50
2023-04-13T05:15:24.069Z,95872.31
2023-04-13T05:16:26.301Z,95871.09
2023-04-13T05:17:28.997Z,95871.66
2023-04-13T05:18:31.248Z,95872.25
2023-04-13T05:19:35.457Z,95878.84
2023-04-13T05:20:39.389Z,95880.22
2023-04-13T05:21:41.208Z,95872.22
2023-04-13T05:22:43.110Z,95878.78
2023-04-13T05:23:45.142Z,95878.59
2023-04-13T05:24:46.907Z,95884.13
2023-04-13T05:25:49.138Z,95883.94
2023-04-13T05:26:51.064Z,95882.34
2023-04-13T05:27:53.369Z,95878.16
2023-04-13T05:28:55.274Z,95883.16
2023-04-13T05:29:57.785Z,95884.94
2023-04-13T05:31:03.524Z,95882.56
2023-04-13T05:32:05.484Z,95876.00
2023-04-13T05:33:09.306Z,95876.56
2023-04-13T05:34:11.992Z,95882.34
2023-04-13T05:35:13.850Z,95882.56
2023-04-13T05:36:15.659Z,95880.94
2023-04-13T05:37:17.535Z,95887.38
2023-04-13T05:38:19.401Z,95884.03
2023-04-13T05:39:22.328Z,95884.03
2023-04-13T05:40:24.338Z,95881.44
2023-04-13T05:41:26.276Z,95887.22
2023-04-13T05:42:28.097Z,95894.59
2023-04-13T05:43:29.898Z,95894.59
2023-04-13T05:44:32.598Z,95890.19
2023-04-13T05:45:34.448Z,95897.75
2023-04-13T05:46:36.897Z,95896.78
2023-04-13T05:47:38.866Z,95897.19
2023-04-13T05:48:42.298Z,95900.38
2023-04-13T05:49:44.188Z,95896.78
2023-04-13T05:50:46.013Z,95906.72
2023-04-13T05:51:48.153Z,95909.72
2023-04-13T05:52:50.011Z,95908.06
2023-04-13T05:53:52.541Z,95907.63
2023-04-13T05:54:55.090Z,95907.22
2023-04-13T05:55:57.470Z,95908.22
2023-04-13T05:56:59.872Z,95911.63
2023-04-13T05:58:04.534Z,95909.97
2023-04-13T05:59:06.533Z,95913.75
2023-04-13T06:00:10.726Z,95917.75
2023-04-13T06:01:13.137Z,95913.53
2023-04-13T06:02:15.129Z,95925.91
2023-04-13T06:03:17.570Z,95920.09
2023-04-13T06:04:19.896Z,95916.47
2023-04-13T06:05:22.664Z,95924.84
2023-04-13T06:06:25.362Z,95921.03
2023-04-13T06:07:28.349Z,95920.03
2023-04-13T06:08:33.034Z,95921.66
2023-04-13T06:09:34.896Z,95927.06
2023-04-13T06:10:37.183Z,95926.69
2023-04-13T06:11:39.133Z,95925.66
2023-04-13T06:12:41.684Z,95929.91
2023-04-13T06:13:44.089Z,95928.31
2023-04-13T06:14:46.494Z,95927.09
2023-04-13T06:15:48.757Z,95925.88
2023-04-13T06:16:50.694Z,95927.66
2023-04-13T06:17:53.477Z,95935.47
2023-04-13T06:18:55.614Z,95927.91
2023-04-13T06:19:57.557Z,95928.69
2023-04-13T06:21:00.247Z,95930.50
2023-04-13T06:22:02.487Z,95934.28
2023-04-13T06:23:04.371Z,95937.91
2023-04-13T06:24:06.403Z,95939.94
2023-04-13T06:25:08.867Z,95939.53
2023-04-13T06:26:10.771Z,95947.63
2023-04-13T06:27:13.221Z,95951.22
2023-04-13T06:28:15.226Z,95954.41
2023-04-13T06:29:17.066Z,95944.03
2023-04-13T06:30:19.145Z,95948.44
2023-04-13T06:31:21.790Z,95959.03
2023-04-13T06:32:23.802Z,95954.66
2023-04-13T06:33:26.570Z,95953.50
2023-04-13T06:34:28.510Z,95953.50
2023-04-13T06:35:30.982Z,95956.88
2023-04-13T06:36:33.141Z,95953.50
2023-04-13T06:37:36.198Z,95953.50
2023-04-13T06:38:37.984Z,95963.31
2023-04-13T06:39:39.819Z,95966.91
2023-04-13T06:40:42.221Z,95955.94
2023-04-13T06:41:44.178Z,95958.31
2023-04-13T06:42:46.089Z,95959.72
2023-04-13T06:43:47.934Z,95952.91
2023-04-13T06:44:49.826Z,95959.72
2023-04-13T06:45:57.990Z,95955.72
2023-04-13T06:46:59.943Z,95957.72
2023-04-13T06:48:01.946Z,95960.53
2023-04-13T06:49:03.885Z,95966.53
2023-04-13T06:50:06.891Z,95962.13
2023-04-13T06:51:08.733Z,95959.72
2023-04-13T06:52:10.927Z,95957.56
2023-04-13T06:53:12.740Z,95968.34
2023-04-13T06:54:14.706Z,95968.13
2023-04-13T06:55:17.702Z,95963.72
2023-04-13T06:56:19.653Z,95974.13
2023-04-13T06:57:21.724Z,95976.13
2023-04-13T06:58:23.701Z,95973.16
2023-04-13T06:59:25.777Z,95979.78
2023-04-13T07:00:30.101Z,95971.59
2023-04-13T07:01:32.796Z,95966.59
2023-04-13T07:02:35.021Z,95979.00
2023-04-13T07:03:37.330Z,95968.84
2023-04-13T07:04:39.483Z,95974.03
2023-04-13T07:05:41.675Z,95974.44
2023-04-13T07:06:44.118Z,95969.81
2023-04-13T07:07:46.953Z,95971.44
2023-04-13T07:08:49.164Z,95976.19
2023-04-13T07:09:51.054Z,95976.63
2023-04-13T07:10:53.831Z,95977.81
2023-04-13T07:11:55.610Z,95984.03
2023-04-13T07:12:57.461Z,95985.81
2023-04-13T07:13:59.268Z,95979.03
2023-04-13T07:15:01.295Z,95984.44
2023-04-13T07:16:04.348Z,95991.00
2023-04-13T07:17:06.356Z,95991.38
2023-04-13T07:18:08.271Z,95987.00
2023-04-13T07:19:10.115Z,95980.22
2023-04-13T07:20:12.280Z,95992.22
2023-04-13T07:21:14.178Z,95992.22
2023-04-13T07:22:17.008Z,95989.81
2023-04-13T07:23:19.460Z,95994.19
2023-04-13T07:24:21.307Z,95999.38
2023-04-13T07:25:23.139Z,95996.59
2023-04-13T07:26:25.005Z,95996.38
2023-04-13T07:27:26.929Z,95988.78
2023-04-13T07:28:28.898Z,95991.97
2023-04-13T07:29:31.257Z,95994.38
2023-04-13T07:30:35.619Z,95992.78
2023-04-13T07:31:38.317Z,95988.19
2023-04-13T07:32:41.362Z,95990.94
2023-04-13T07:33:43.297Z,95995.75
2023-04-13T07:34:45.111Z,95994.53
2023-04-13T07:35:47.030Z,95995.31
2023-04-13T07:36:48.956Z,95997.91
2023-04-13T07:37:52.811Z,95996.31
2023-04-13T07:38:55.313Z,96002.69
2023-04-13T07:39:57.234Z,96000.31
2023-04-13T07:40:59.182Z,96006.09
2023-04-13T07:42:01.967Z,95996.09
2023-04-13T07:43:03.855Z,95998.34
2023-04-13T07:44:06.428Z,95995.34
2023-04-13T07:45:08.482Z,96009.97
2023-04-13T07:46:12.229Z,96006.56
2023-04-13T07:47:14.583Z,96010.16
2023-04-13T07:48:16.435Z,96010.59
2023-04-13T07:49:18.388Z,96007.16
2023-04-13T07:50:20.310Z,96014.97
2023-04-13T07:51:22.192Z,96014.75
2023-04-13T07:52:24.051Z,96008.78
2023-04-13T07:53:26.468Z,96014.75
2023-04-13T07:54:28.297Z,96009.56
2023-04-13T07:55:30.107Z,96020.34
2023-04-13T07:56:32.026Z,96018.72
2023-04-13T07:57:34.003Z,96021.31
2023-04-13T07:58:35.939Z,96022.13
2023-04-13T07:59:37.815Z,96019.34
2023-04-13T08:00:39.732Z,96014.16
2023-04-13T08:01:41.576Z,96017.16
2023-04-13T08:02:43.676Z,96017.16
2023-04-13T08:03:45.744Z,96014.56
2023-04-13T08:04:47.979Z,96016.75
2023-04-13T08:05:49.895Z,96022.91
2023-04-13T08:06:52.290Z,96020.69
2023-04-13T08:07:54.264Z,96017.31
2023-04-13T08:08:56.310Z,96019.72
2023-04-13T08:09:58.147Z,96017.13
2023-04-13T08:11:00.543Z,96011.47
2023-04-13T08:12:03.435Z,96019.88
2023-04-13T08:13:05.284Z,96021.09
2023-04-13T08:14:09.951Z,96025.09
2023-04-13T08:15:11.981Z,96023.88
2023-04-13T08:16:14.363Z,96026.69
2023-04-13T08:17:16.228Z,96025.72
2023-04-13T08:18:18.041Z,96028.94
2023-04-13T08:19:20.035Z,96030.16
2023-04-13T08:20:21.867Z,96026.56
2023-04-13T08:21:24.156Z,96030.16
2023-04-13T08:22:25.986Z,96027.34
2023-04-13T08:23:27.824Z,96028.13
2023-04-13T08:24:29.816Z,96030.94
2023-04-13T08:25:32.264Z,96031.56
2023-04-13T08:26:34.129Z,96027.16
2023-04-13T08:27:36.110Z,96032.97
2023-04-13T08:28:38.299Z,96033.56
2023-04-13T08:29:40.308Z,96038.13
2023-04-13T08:30:46.382Z,96034.94
2023-04-13T08:31:48.417Z,96030.16
2023-04-13T08:32:50.335Z,96034.13
2023-04-13T08:33:52.218Z,96030.72
2023-04-13T08:34:55.045Z,96033.94
2023-04-13T08:35:57.117Z,96041.91
2023-04-13T08:36:59.369Z,96045.69
2023-04-13T08:38:02.890Z,96043.09
2023-04-13T08:39:06.305Z,96039.13
2023-04-13T08:40:12.301Z,96036.53
2023-04-13T08:41:14.524Z,96032.34
2023-04-13T08:42:16.514Z,96031.75
2023-04-13T08:43:19.912Z,96038.97
2023-04-13T08:44:21.773Z,96032.16
2023-04-13T08:45:23.755Z,96033.75
2023-04-13T08:46:25.712Z,96030.72
2023-04-13T08:47:28.447Z,96036.53
2023-04-13T08:48:42.509Z,96037.69
2023-04-13T08:49:50.103Z,96036.31
2023-04-13T08:50:52.625Z,96038.91
2023-04-13T08:52:00.025Z,96038.13
2023-04-13T08:53:02.323Z,96031.31
2023-04-13T08:54:04.898Z,96034.13
2023-04-13T08:55:06.962Z,96035.69
2023-04-13T08:56:12.651Z,96042.09
2023-04-13T08:57:16.848Z,96034.94
2023-04-13T08:58:23.164Z,96042.31
2023-04-13T08:59:27.544Z,96050.91
2023-04-13T09:00:30.257Z,96056.94
2023-04-13T09:01:33.006Z,96047.19
2023-04-13T09:02:37.154Z,96051.19
2023-04-13T09:03:46.211Z,96045.75
2023-04-13T09:04:51.022Z,96050.56
2023-04-13T09:05:56.138Z,96038.16
2023-04-13T09:07:00.236Z,96034.56
2023-04-13T09:08:05.013Z,96030.19
2023-04-13T09:09:11.001Z,96037.16
2023-04-13T09:10:16.662Z,96032.78
2023-04-13T09:11:18.540Z,96028.56
2023-04-13T09:12:20.718Z,96033.94
2023-04-13T09:13:22.681Z,96029.13
2023-04-13T09:14:24.810Z,96024.50
2023-04-13T09:15:26.653Z,96023.97
2023-04-13T09:16:28.656Z,96020.00
2023-04-13T09:17:34.721Z,96014.59
2023-04-13T09:18:36.709Z,96016.03
2023-04-13T09:19:38.962Z,96024.63
2023-04-13T09:20:41.056Z,96016.41
2023-04-13T09:21:43.805Z,96016.84
2023-04-13T09:22:46.140Z,96016.66
2023-04-13T09:23:57.997Z,96021.88
2023-04-13T09:24:59.865Z,96015.28
2023-04-13T09:26:07.553Z,96019.88
2023-04-13T09:27:20.456Z,96013.84
2023-04-13T09:28:22.529Z,96020.03
2023-04-13T09:29:24.351Z,96008.66
2023-04-13T09:30:27.506Z,96003.84
2023-04-13T09:31:29.434Z,96010.44
2023-04-13T09:32:31.383Z,96013.59
2023-04-13T09:33:46.074Z,96021.38
2023-04-13T09:34:57.934Z,96024.91
2023-04-13T09:36:08.906Z,96017.72
2023-04-13T09:37:14.658Z,96014.91
2023-04-13T09:38:16.675Z,96020.09
2023-04-13T09:39:24.302Z,96024.09
2023-04-13T09:40:26.936Z,96023.50
2023-04-13T09:41:35.391Z,96021.72
2023-04-13T09:42:38.762Z,96014.28
2023-04-13T09:43:41.161Z,96019.88
2023-04-13T09:44:43.109Z,96013.69
2023-04-13T09:45:45.019Z,96010.69
2023-04-13T09:47:03.236Z,96022.13
2023-04-13T09:48:06.082Z,96015.75
2023-04-13T09:49:08.108Z,96016.13
2023-04-13T09:50:16.953Z,96010.75
2023-04-13T09:51:18.985Z,96010.75
2023-04-13T09:52:23.320Z,96014.31
2023-04-13T09:53:25.650Z,96010.16
2023-04-13T09:54:28.844Z,96007.94
2023-04-13T09:55:33.331Z,96014.91
2023-04-13T09:56:47.742Z,96018.53
2023-04-13T09:57:50.313Z,96009.72
2023-04-13T09:58:53.589Z,96011.91
2023-04-13T09:59:56.957Z,96014.50
2023-04-13T10:00:58.877Z,96014.91
2023-04-13T10:02:02.550Z,96012.72
2023-04-13T10:03:06.805Z,96008.25
2023-04-13T10:04:10.479Z,96014.84
2023-04-13T10:05:12.653Z,96016.03
2023-04-13T10:06:14.772Z,96021.19
2023-04-13T10:07:16.791Z,96028.00
2023-04-13T10:08:27.350Z,96014.38
2023-04-13T10:09:33.005Z,96017.56
2023-04-13T10:10:34.958Z,96015.66
2023-04-13T10:11:46.998Z,96018.28
2023-04-13T10:12:54.051Z,96021.88
2023-04-13T10:13:59.196Z,96025.50
2023-04-13T10:15:10.551Z,96016.28
2023-04-13T10:16:23.594Z,96021.88
2023-04-13T10:17:57.978Z,96024.88
2023-04-13T10:19:10.180Z,96022.47
2023-04-13T10:20:14.069Z,96018.44
2023-04-13T10:21:17.011Z,96019.63
2023-04-13T10:22:20.488Z,96015.44
2023-04-13T10:23:22.527Z,96017.63
2023-04-13T10:24:24.411Z,96017.59
2023-04-13T10:25:33.844Z,96015.19
2023-04-13T10:26:37.778Z,96017.03
2023-04-13T10:27:39.875Z,96013.69
2023-04-13T10:28:45.315Z,96008.44
2023-04-13T10:29:47.812Z,96003.63
2023-04-13T10:30:52.957Z,96011.44
2023-04-13T10:31:56.185Z,96000.59
2023-04-13T10:33:02.259Z,96002.81
2023-04-13T10:34:05.348Z,96002.81
2023-04-13T10:35:12.050Z,96003.97
2023-04-13T10:36:13.963Z,95998.31
2023-04-13T10:37:19.870Z,95999.88
2023-04-13T10:38:22.041Z,96003.09
2023-04-13T10:39:27.959Z,96003.53
2023-04-13T10:40:29.886Z,96005.78
2023-04-13T10:41:31.867Z,96000.41
2023-04-13T10:42:52.552Z,96000.59
2023-04-13T10:44:08.223Z,96001.16
2023-04-13T10:45:24.294Z,96001.16
2023-04-13T10:46:26.218Z,95995.75
2023-04-13T10:47:36.339Z,95998.72
2023-04-13T10:48:38.268Z,96000.91
2023-04-13T10:49:41.227Z,95995.09
2023-04-13T10:50:43.122Z,95990.50
2023-04-13T10:51:45.788Z,95995.09
2023-04-13T10:53:07.242Z,95993.09
2023-04-13T10:54:10.065Z,95992.66
2023-04-13T10:55:13.214Z,95995.69
2023-04-13T10:56:19.356Z,95994.84
2023-04-13T10:57:21.971Z,95987.44
2023-04-13T10:58:24.181Z,95987.38
2023-04-13T11:00:54.555Z,95987.38
2023-04-13T11:01:56.460Z,95991.09
2023-04-13T11:02:59.021Z,95990.22
2023-04-13T11:04:07.754Z,95979.38
2023-04-13T11:05:17.230Z,95992.91
2023-04-13T11:06:19.118Z,95986.84
2023-04-13T11:07:23.595Z,95994.22
2023-04-13T11:08:28.280Z,95990.81
2023-04-13T11:09:30.410Z,95992.78
2023-04-13T11:10:32.702Z,95987.16
2023-04-13T11:11:36.934Z,95993.16
2023-04-13T11:12:38.986Z,95994.38
2023-04-13T11:13:44.753Z,95994.38
2023-04-13T11:14:50.807Z,95992.34
2023-04-13T11:16:01.518Z,95986.56
2023-04-13T11:17:03.513Z,95991.03
2023-04-13T11:18:05.494Z,95991.19
2023-04-13T11:19:08.296Z,95991.94
2023-04-13T11:20:11.874Z,95985.13
2023-04-13T11:21:14.456Z,95988.19
2023-04-13T11:22:18.218Z,95988.38
2023-04-13T11:23:24.105Z,95987.16
2023-04-13T11:24:27.322Z,95987.00
2023-04-13T11:25:29.215Z,95986.44
2023-04-13T11:26:31.698Z,95983.25
2023-04-13T11:27:33.608Z,95976.88
2023-04-13T11:28:40.419Z,95975.28
2023-04-13T11:29:42.348Z,95979.69
2023-04-13T11:30:51.686Z,95982.28
2023-04-13T11:31:53.533Z,95979.25
2023-04-13T11:32:56.731Z,95982.81
2023-04-13T11:33:58.698Z,95981.63
2023-04-13T11:35:08.415Z,95987.28
2023-04-13T11:36:12.188Z,95982.06
2023-04-13T11:37:14.132Z,95984.44
2023-04-13T11:38:20.510Z,95987.69
2023-04-13T11:39:23.490Z,95989.88
2023-04-13T11:40:26.069Z,95986.44
2023-04-13T11:41:29.248Z,95985.19
2023-04-13T11:42:31.981Z,95981.16
2023-04-13T11:43:34.361Z,95977.56
2023-04-13T11:44:37.456Z,95983.13
2023-04-13T11:45:39.410Z,95982.91
2023-04-13T11:46:41.654Z,95977.19
2023-04-13T11:47:44.278Z,95980.00
2023-04-13T11:48:46.280Z,95982.81
2023-04-13T11:49:48.334Z,95972.84
2023-04-13T11:50:50.967Z,95973.03
2023-04-13T11:51:52.888Z,95975.66
2023-04-13T11:52:58.288Z,95976.03
2023-04-13T11:54:01.336Z,95966.78
2023-04-13T11:55:19.148Z,95973.41
2023-04-13T11:56:26.310Z,95970.81
2023-04-13T11:57:29.306Z,95969.66
2023-04-13T11:58:32.302Z,95962.06
2023-04-13T11:59:34.213Z,95966.03
2023-04-13T12:00:42.350Z,95959.19
2023-04-13T12:01:53.207Z,95956.97
2023-04-13T12:03:02.319Z,95953.19
2023-04-13T12:04:14.568Z,95948.63
2023-04-13T12:05:25.627Z,95951.38
2023-04-13T12:06:28.106Z,95952.34
2023-04-13T12:07:31.306Z,95942.31
2023-04-13T12:08:33.873Z,95948.72
2023-04-13T12:13:35.921Z,95937.13
2023-04-13T12:14:54.134Z,95935.69
2023-04-13T12:16:08.513Z,95927.59
2023-04-13T12:18:24.651Z,95931.94
2023-04-13T12:19:30.912Z,95934.91
2023-04-13T12:20:36.927Z,95927.91
2023-04-13T12:21:40.186Z,95932.75
2023-04-13T12:22:52.559Z,95938.44
2023-04-13T12:23:59.908Z,95933.59
2023-04-13T12:25:02.457Z,95943.78
2023-04-13T12:26:33.152Z,95932.97
2023-04-13T12:27:39.838Z,95929.91
2023-04-13T12:28:41.688Z,95932.69
2023-04-13T12:29:43.518Z,95932.03
2023-04-13T12:30:46.250Z,95928.84
2023-04-13T12:31:48.216Z,95933.84
2023-04-13T12:32:54.353Z,95932.69